sensor_id;sensor_type;location;lat;lon;timestamp;pressure;altitude;pressure_sealevel;temperature;humidity
28312;BME280;15572;48.810;9.148;2024-03-22T00:02:52;98817.03;;;8.39;100.00
28312;BME280;15572;48.810;9.148;2024-03-22T00:07:49;98808.22;;;8.29;100.00
28312;BME280;15572;48.810;9.148;2024-03-22T00:12:46;98802.00;;;8.29;100.00
28312;BME280;15572;48.810;9.148;2024-03-22T00:17:43;98793.56;;;8.24;100.00
28312;BME280;15572;48.810;9.148;2024-03-22T00:22:39;98789.66;;;8.18;100.00
28312;BME280;15572;48.810;9.148;2024-03-22T00:27:37;98781.88;;;7.91;100.00
28312;BME280;15572;48.810;9.148;2024-03-22T00:32:33;98776.28;;;7.68;100.00
28312;BME280;15572;48.810;9.148;2024-03-22T00:37:29;98783.81;;;7.56;100.00
28312;BME280;15572;48.810;9.148;2024-03-22T00:42:26;98783.25;;;7.45;100.00
28312;BME280;15572;48.810;9.148;2024-03-22T00:47:24;98768.47;;;7.49;100.00
28312;BME280;15572;48.810;9.148;2024-03-22T00:52:20;98757.50;;;7.42;100.00
28312;BME280;15572;48.810;9.148;2024-03-22T00:57:16;98756.81;;;7.40;100.00
28312;BME280;15572;48.810;9.148;2024-03-22T01:02:13;98748.53;;;7.34;100.00
28312;BME280;15572;48.810;9.148;2024-03-22T01:07:10;98740.72;;;7.14;100.00
28312;BME280;15572;48.810;9.148;2024-03-22T01:12:07;98735.94;;;7.00;100.00
28312;BME280;15572;48.810;9.148;2024-03-22T01:17:03;98734.44;;;6.98;100.00
28312;BME280;15572;48.810;9.148;2024-03-22T01:22:00;98729.19;;;6.96;100.00
28312;BME280;15572;48.810;9.148;2024-03-22T01:26:58;98724.44;;;6.90;100.00
28312;BME280;15572;48.810;9.148;2024-03-22T01:31:54;98717.63;;;6.70;100.00
28312;BME280;15572;48.810;9.148;2024-03-22T01:36:51;98730.44;;;6.50;100.00
28312;BME280;15572;48.810;9.148;2024-03-22T01:41:47;98731.56;;;6.40;100.00
28312;BME280;15572;48.810;9.148;2024-03-22T01:46:47;98736.75;;;6.41;100.00
28312;BME280;15572;48.810;9.148;2024-03-22T01:51:44;98724.69;;;6.45;100.00
28312;BME280;15572;48.810;9.148;2024-03-22T01:56:40;98723.53;;;6.48;100.00
28312;BME280;15572;48.810;9.148;2024-03-22T02:01:37;98711.19;;;6.37;100.00
28312;BME280;15572;48.810;9.148;2024-03-22T02:06:34;98708.34;;;6.39;100.00
28312;BME280;15572;48.810;9.148;2024-03-22T02:11:31;98702.75;;;6.32;100.00
28312;BME280;15572;48.810;9.148;2024-03-22T02:16:27;98691.13;;;6.31;100.00
28312;BME280;15572;48.810;9.148;2024-03-22T02:21:24;98693.63;;;6.25;100.00
28312;BME280;15572;48.810;9.148;2024-03-22T02:26:22;98677.50;;;6.25;100.00
28312;BME280;15572;48.810;9.148;2024-03-22T02:31:18;98676.28;;;6.19;100.00
28312;BME280;15572;48.810;9.148;2024-03-22T02:36:15;98675.91;;;6.14;100.00
28312;BME280;15572;48.810;9.148;2024-03-22T02:41:12;98677.28;;;6.18;100.00
28312;BME280;15572;48.810;9.148;2024-03-22T02:46:09;98666.06;;;6.23;100.00
28312;BME280;15572;48.810;9.148;2024-03-22T02:51:06;98661.31;;;6.17;100.00
28312;BME280;15572;48.810;9.148;2024-03-22T02:56:02;98652.25;;;6.18;100.00
28312;BME280;15572;48.810;9.148;2024-03-22T03:00:59;98650.19;;;6.12;100.00
28312;BME280;15572;48.810;9.148;2024-03-22T03:05:59;98656.00;;;6.25;100.00
28312;BME280;15572;48.810;9.148;2024-03-22T03:10:55;98650.75;;;6.23;100.00
28312;BME280;15572;48.810;9.148;2024-03-22T03:15:51;98643.31;;;6.17;100.00
28312;BME280;15572;48.810;9.148;2024-03-22T03:20:48;98638.00;;;6.25;100.00
28312;BME280;15572;48.810;9.148;2024-03-22T03:25:46;98632.22;;;6.12;100.00
28312;BME280;15572;48.810;9.148;2024-03-22T03:30:43;98634.66;;;6.06;100.00
28312;BME280;15572;48.810;9.148;2024-03-22T03:35:39;98625.25;;;6.02;100.00
28312;BME280;15572;48.810;9.148;2024-03-22T03:40:36;98632.63;;;6.00;100.00
28312;BME280;15572;48.810;9.148;2024-03-22T03:45:36;98625.53;;;5.99;100.00
28312;BME280;15572;48.810;9.148;2024-03-22T03:50:32;98621.22;;;6.06;100.00
28312;BME280;15572;48.810;9.148;2024-03-22T03:55:29;98624.19;;;5.95;100.00
28312;BME280;15572;48.810;9.148;2024-03-22T04:00:25;98620.81;;;5.75;100.00
28312;BME280;15572;48.810;9.148;2024-03-22T04:05:23;98616.94;;;5.77;100.00
28312;BME280;15572;48.810;9.148;2024-03-22T04:10:19;98619.50;;;5.79;100.00
28312;BME280;15572;48.810;9.148;2024-03-22T04:15:15;98614.63;;;5.82;100.00
28312;BME280;15572;48.810;9.148;2024-03-22T04:20:12;98615.66;;;5.81;100.00
28312;BME280;15572;48.810;9.148;2024-03-22T04:25:09;98609.38;;;5.73;100.00
28312;BME280;15572;48.810;9.148;2024-03-22T04:30:07;98605.84;;;5.72;100.00
28312;BME280;15572;48.810;9.148;2024-03-22T04:35:06;98609.81;;;5.86;100.00
28312;BME280;15572;48.810;9.148;2024-03-22T04:40:02;98614.06;;;5.88;100.00
28312;BME280;15572;48.810;9.148;2024-03-22T04:45:00;98622.28;;;5.87;100.00
28312;BME280;15572;48.810;9.148;2024-03-22T04:49:57;98623.78;;;6.07;100.00
28312;BME280;15572;48.810;9.148;2024-03-22T04:54:53;98625.34;;;6.18;100.00
28312;BME280;15572;48.810;9.148;2024-03-22T04:59:49;98622.69;;;6.26;100.00
28312;BME280;15572;48.810;9.148;2024-03-22T05:04:47;98623.78;;;6.41;100.00
28312;BME280;15572;48.810;9.148;2024-03-22T05:09:44;98616.56;;;6.42;100.00
28312;BME280;15572;48.810;9.148;2024-03-22T05:14:41;98620.91;;;6.34;100.00
28312;BME280;15572;48.810;9.148;2024-03-22T05:19:37;98619.47;;;6.48;100.00
28312;BME280;15572;48.810;9.148;2024-03-22T05:24:35;98616.34;;;6.61;100.00
28312;BME280;15572;48.810;9.148;2024-03-22T05:29:31;98615.22;;;6.71;100.00
28312;BME280;15572;48.810;9.148;2024-03-22T05:34:28;98610.03;;;6.78;100.00
28312;BME280;15572;48.810;9.148;2024-03-22T05:39:24;98603.16;;;6.84;100.00
28312;BME280;15572;48.810;9.148;2024-03-22T05:44:22;98589.22;;;6.88;100.00
28312;BME280;15572;48.810;9.148;2024-03-22T05:49:19;98595.59;;;6.95;100.00
28312;BME280;15572;48.810;9.148;2024-03-22T05:54:15;98585.38;;;6.99;100.00
28312;BME280;15572;48.810;9.148;2024-03-22T05:59:11;98591.41;;;6.93;100.00
28312;BME280;15572;48.810;9.148;2024-03-22T06:04:09;98582.97;;;6.96;100.00
28312;BME280;15572;48.810;9.148;2024-03-22T06:09:06;98577.44;;;7.05;100.00
28312;BME280;15572;48.810;9.148;2024-03-22T06:14:04;98583.72;;;7.14;100.00
28312;BME280;15572;48.810;9.148;2024-03-22T06:19:00;98581.88;;;7.14;100.00
28312;BME280;15572;48.810;9.148;2024-03-22T06:24:00;98583.22;;;7.18;100.00
28312;BME280;15572;48.810;9.148;2024-03-22T06:28:57;98574.63;;;7.23;100.00
28312;BME280;15572;48.810;9.148;2024-03-22T06:33:54;98575.84;;;7.37;100.00
28312;BME280;15572;48.810;9.148;2024-03-22T06:38:51;98568.25;;;7.48;100.00
28312;BME280;15572;48.810;9.148;2024-03-22T06:43:49;98563.22;;;7.61;100.00
28312;BME280;15572;48.810;9.148;2024-03-22T06:48:46;98563.72;;;7.73;100.00
28312;BME280;15572;48.810;9.148;2024-03-22T06:53:42;98554.59;;;7.82;100.00
28312;BME280;15572;48.810;9.148;2024-03-22T06:58:40;98560.81;;;7.91;100.00
28312;BME280;15572;48.810;9.148;2024-03-22T07:03:38;98569.22;;;8.04;100.00
28312;BME280;15572;48.810;9.148;2024-03-22T07:08:35;98564.16;;;8.17;100.00
28312;BME280;15572;48.810;9.148;2024-03-22T07:13:31;98552.66;;;8.31;100.00
28312;BME280;15572;48.810;9.148;2024-03-22T07:18:28;98549.75;;;8.49;100.00
28312;BME280;15572;48.810;9.148;2024-03-22T07:23:25;98551.53;;;8.65;100.00
28312;BME280;15572;48.810;9.148;2024-03-22T07:28:22;98545.38;;;8.79;100.00
28312;BME280;15572;48.810;9.148;2024-03-22T07:33:18;98541.75;;;8.95;100.00
28312;BME280;15572;48.810;9.148;2024-03-22T07:38:15;98530.66;;;9.12;100.00
28312;BME280;15572;48.810;9.148;2024-03-22T07:43:12;98533.56;;;9.34;100.00
28312;BME280;15572;48.810;9.148;2024-03-22T07:48:11;98527.00;;;9.51;100.00
28312;BME280;15572;48.810;9.148;2024-03-22T07:53:08;98525.81;;;9.68;100.00
28312;BME280;15572;48.810;9.148;2024-03-22T07:58:04;98525.03;;;9.82;100.00
28312;BME280;15572;48.810;9.148;2024-03-22T08:03:03;98530.75;;;10.02;100.00
28312;BME280;15572;48.810;9.148;2024-03-22T08:07:59;98536.69;;;10.20;100.00
28312;BME280;15572;48.810;9.148;2024-03-22T08:12:55;98520.81;;;10.46;100.00
28312;BME280;15572;48.810;9.148;2024-03-22T08:17:52;98519.16;;;10.81;100.00
28312;BME280;15572;48.810;9.148;2024-03-22T08:22:50;98511.75;;;11.11;100.00
28312;BME280;15572;48.810;9.148;2024-03-22T08:27:46;98508.38;;;11.45;100.00
28312;BME280;15572;48.810;9.148;2024-03-22T08:32:42;98500.13;;;11.81;100.00
28312;BME280;15572;48.810;9.148;2024-03-22T08:37:39;98492.22;;;12.14;100.00
28312;BME280;15572;48.810;9.148;2024-03-22T08:42:37;98498.06;;;12.45;100.00
28312;BME280;15572;48.810;9.148;2024-03-22T08:47:33;98472.69;;;13.40;84.74
28312;BME280;15572;48.810;9.148;2024-03-22T08:52:29;98483.16;;;13.69;83.74
28312;BME280;15572;48.810;9.148;2024-03-22T08:57:27;98484.38;;;14.00;78.25
28312;BME280;15572;48.810;9.148;2024-03-22T09:02:25;98476.59;;;14.29;74.48
28312;BME280;15572;48.810;9.148;2024-03-22T09:07:22;98469.47;;;14.42;71.41
28312;BME280;15572;48.810;9.148;2024-03-22T09:12:18;98470.91;;;14.51;71.10
28312;BME280;15572;48.810;9.148;2024-03-22T09:17:15;98467.47;;;14.68;68.28
28312;BME280;15572;48.810;9.148;2024-03-22T09:22:13;98466.38;;;14.83;68.52
28312;BME280;15572;48.810;9.148;2024-03-22T09:27:10;98453.28;;;14.98;66.34
28312;BME280;15572;48.810;9.148;2024-03-22T09:32:06;98462.16;;;15.18;62.43
28312;BME280;15572;48.810;9.148;2024-03-22T09:37:03;98444.41;;;15.40;61.35
28312;BME280;15572;48.810;9.148;2024-03-22T09:42:05;98447.25;;;15.58;58.60
28312;BME280;15572;48.810;9.148;2024-03-22T09:47:03;98436.19;;;15.72;56.02
28312;BME280;15572;48.810;9.148;2024-03-22T09:51:59;98422.53;;;15.96;56.90
28312;BME280;15572;48.810;9.148;2024-03-22T09:56:57;98417.81;;;16.04;56.21
28312;BME280;15572;48.810;9.148;2024-03-22T10:01:57;98402.91;;;16.06;56.17
28312;BME280;15572;48.810;9.148;2024-03-22T10:06:55;98406.53;;;16.36;54.74
28312;BME280;15572;48.810;9.148;2024-03-22T10:11:51;98398.41;;;16.48;53.69
28312;BME280;15572;48.810;9.148;2024-03-22T10:16:48;98404.09;;;16.47;56.08
28312;BME280;15572;48.810;9.148;2024-03-22T10:21:46;98386.56;;;16.36;54.85
28312;BME280;15572;48.810;9.148;2024-03-22T10:26:42;98378.53;;;16.59;56.27
28312;BME280;15572;48.810;9.148;2024-03-22T10:31:39;98366.69;;;16.65;55.10
28312;BME280;15572;48.810;9.148;2024-03-22T10:36:35;98361.94;;;16.61;54.36
28312;BME280;15572;48.810;9.148;2024-03-22T10:41:33;98345.09;;;16.57;54.21
28312;BME280;15572;48.810;9.148;2024-03-22T10:46:30;98337.06;;;16.62;51.96
28312;BME280;15572;48.810;9.148;2024-03-22T10:51:27;98323.59;;;16.79;53.97
28312;BME280;15572;48.810;9.148;2024-03-22T10:56:24;98309.69;;;16.80;54.68
28312;BME280;15572;48.810;9.148;2024-03-22T11:01:26;98300.69;;;16.92;55.70
28312;BME280;15572;48.810;9.148;2024-03-22T11:06:30;98308.56;;;17.11;55.33
28312;BME280;15572;48.810;9.148;2024-03-22T11:11:28;98294.66;;;17.13;53.35
28312;BME280;15572;48.810;9.148;2024-03-22T11:16:26;98295.16;;;17.33;53.67
28312;BME280;15572;48.810;9.148;2024-03-22T11:21:22;98284.44;;;17.32;53.31
28312;BME280;15572;48.810;9.148;2024-03-22T11:26:19;98290.53;;;17.57;52.19
28312;BME280;15572;48.810;9.148;2024-03-22T11:31:15;98277.50;;;18.11;49.01
28312;BME280;15572;48.810;9.148;2024-03-22T11:36:13;98264.09;;;18.54;45.33
28312;BME280;15572;48.810;9.148;2024-03-22T11:41:10;98245.97;;;18.98;45.71
28312;BME280;15572;48.810;9.148;2024-03-22T11:46:07;98243.31;;;19.20;43.89
28312;BME280;15572;48.810;9.148;2024-03-22T11:51:03;98229.06;;;19.56;43.35
28312;BME280;15572;48.810;9.148;2024-03-22T11:56:02;98219.44;;;19.54;41.85
28312;BME280;15572;48.810;9.148;2024-03-22T12:00:59;98221.09;;;19.55;42.22
28312;BME280;15572;48.810;9.148;2024-03-22T12:05:57;98208.56;;;19.09;42.51
28312;BME280;15572;48.810;9.148;2024-03-22T12:10:54;98199.69;;;19.02;43.17
28312;BME280;15572;48.810;9.148;2024-03-22T12:15:52;98191.78;;;18.88;43.75
28312;BME280;15572;48.810;9.148;2024-03-22T12:20:48;98183.81;;;18.70;43.68
28312;BME280;15572;48.810;9.148;2024-03-22T12:25:44;98166.44;;;18.81;43.82
28312;BME280;15572;48.810;9.148;2024-03-22T12:30:41;98153.91;;;18.69;43.97
28312;BME280;15572;48.810;9.148;2024-03-22T12:35:39;98139.69;;;18.72;44.18
28312;BME280;15572;48.810;9.148;2024-03-22T12:40:36;98128.81;;;18.77;44.40
28312;BME280;15572;48.810;9.148;2024-03-22T12:45:33;98122.31;;;18.83;44.72
28312;BME280;15572;48.810;9.148;2024-03-22T12:50:30;98122.13;;;19.06;45.13
28312;BME280;15572;48.810;9.148;2024-03-22T12:55:27;98112.88;;;19.12;44.33
28312;BME280;15572;48.810;9.148;2024-03-22T13:00:26;98096.50;;;19.17;44.49
28312;BME280;15572;48.810;9.148;2024-03-22T13:05:22;98091.16;;;19.27;43.79
28312;BME280;15572;48.810;9.148;2024-03-22T13:10:20;98081.81;;;19.28;44.02
28312;BME280;15572;48.810;9.148;2024-03-22T13:15:18;98071.63;;;19.46;43.19
28312;BME280;15572;48.810;9.148;2024-03-22T13:20:14;98058.78;;;19.51;42.65
28312;BME280;15572;48.810;9.148;2024-03-22T13:25:13;98056.47;;;19.21;42.96
28312;BME280;15572;48.810;9.148;2024-03-22T13:30:10;98046.16;;;19.07;43.57
28312;BME280;15572;48.810;9.148;2024-03-22T13:35:09;98047.53;;;19.31;43.71
28312;BME280;15572;48.810;9.148;2024-03-22T13:40:06;98040.84;;;19.22;43.57
28312;BME280;15572;48.810;9.148;2024-03-22T13:45:04;98032.88;;;19.20;43.76
28312;BME280;15572;48.810;9.148;2024-03-22T13:50:00;98024.50;;;19.10;44.26
28312;BME280;15572;48.810;9.148;2024-03-22T13:54:58;98015.22;;;19.11;44.53
28312;BME280;15572;48.810;9.148;2024-03-22T13:59:56;98010.69;;;19.00;44.25
28312;BME280;15572;48.810;9.148;2024-03-22T14:04:52;98001.22;;;18.69;44.66
28312;BME280;15572;48.810;9.148;2024-03-22T14:09:49;98001.16;;;18.47;46.72
28312;BME280;15572;48.810;9.148;2024-03-22T14:14:47;97992.94;;;18.14;47.34
28312;BME280;15572;48.810;9.148;2024-03-22T14:19:43;97989.88;;;17.94;46.90
28312;BME280;15572;48.810;9.148;2024-03-22T14:24:40;97988.88;;;17.83;46.13
28312;BME280;15572;48.810;9.148;2024-03-22T14:29:37;97985.22;;;17.78;45.16
28312;BME280;15572;48.810;9.148;2024-03-22T14:34:35;97971.84;;;17.81;42.95
28312;BME280;15572;48.810;9.148;2024-03-22T14:39:32;97967.13;;;17.77;43.25
28312;BME280;15572;48.810;9.148;2024-03-22T14:44:28;97957.78;;;17.89;43.38
28312;BME280;15572;48.810;9.148;2024-03-22T14:49:25;97959.84;;;17.99;42.90
28312;BME280;15572;48.810;9.148;2024-03-22T14:54:23;97958.56;;;17.90;41.98
28312;BME280;15572;48.810;9.148;2024-03-22T14:59:19;97944.25;;;17.83;42.20
28312;BME280;15572;48.810;9.148;2024-03-22T15:04:16;97943.81;;;17.74;41.72
28312;BME280;15572;48.810;9.148;2024-03-22T15:09:12;97928.41;;;17.68;42.85
28312;BME280;15572;48.810;9.148;2024-03-22T15:14:10;97930.38;;;17.73;42.39
28312;BME280;15572;48.810;9.148;2024-03-22T15:19:06;97924.16;;;17.60;41.59
28312;BME280;15572;48.810;9.148;2024-03-22T15:24:04;97904.28;;;17.53;42.69
28312;BME280;15572;48.810;9.148;2024-03-22T15:29:00;97901.72;;;17.47;42.86
28312;BME280;15572;48.810;9.148;2024-03-22T15:33:58;97898.09;;;17.41;43.34
28312;BME280;15572;48.810;9.148;2024-03-22T15:38:55;97891.34;;;17.32;43.80
28312;BME280;15572;48.810;9.148;2024-03-22T15:43:51;97894.63;;;17.17;44.97
28312;BME280;15572;48.810;9.148;2024-03-22T15:48:47;97874.31;;;17.13;45.31
28312;BME280;15572;48.810;9.148;2024-03-22T15:53:45;97869.31;;;17.10;46.09
28312;BME280;15572;48.810;9.148;2024-03-22T15:58:42;97865.94;;;17.03;46.44
28312;BME280;15572;48.810;9.148;2024-03-22T16:03:38;97869.88;;;16.96;47.00
28312;BME280;15572;48.810;9.148;2024-03-22T16:08:35;97861.09;;;16.94;47.08
28312;BME280;15572;48.810;9.148;2024-03-22T16:13:32;97860.75;;;16.90;47.35
28312;BME280;15572;48.810;9.148;2024-03-22T16:18:29;97849.22;;;16.88;47.37
28312;BME280;15572;48.810;9.148;2024-03-22T16:23:27;97845.03;;;16.97;47.50
28312;BME280;15572;48.810;9.148;2024-03-22T16:28:24;97852.69;;;17.12;47.44
28312;BME280;15572;48.810;9.148;2024-03-22T16:33:23;97834.88;;;17.09;47.79
28312;BME280;15572;48.810;9.148;2024-03-22T16:38:20;97837.09;;;16.96;48.34
28312;BME280;15572;48.810;9.148;2024-03-22T16:43:18;97835.00;;;16.86;49.18
28312;BME280;15572;48.810;9.148;2024-03-22T16:48:15;97836.38;;;16.72;50.01
28312;BME280;15572;48.810;9.148;2024-03-22T16:53:13;97832.34;;;16.63;50.34
28312;BME280;15572;48.810;9.148;2024-03-22T16:58:12;97832.47;;;16.56;51.03
28312;BME280;15572;48.810;9.148;2024-03-22T17:03:09;97830.13;;;16.48;51.82
28312;BME280;15572;48.810;9.148;2024-03-22T17:08:05;97839.69;;;16.34;52.40
28312;BME280;15572;48.810;9.148;2024-03-22T17:13:03;97825.81;;;16.24;53.31
28312;BME280;15572;48.810;9.148;2024-03-22T17:18:00;97824.88;;;16.18;53.78
28312;BME280;15572;48.810;9.148;2024-03-22T17:22:57;97818.72;;;16.11;54.14
28312;BME280;15572;48.810;9.148;2024-03-22T17:27:54;97804.63;;;16.03;54.96
28312;BME280;15572;48.810;9.148;2024-03-22T17:32:52;97795.34;;;15.92;55.74
28312;BME280;15572;48.810;9.148;2024-03-22T17:37:48;97794.28;;;15.81;56.49
28312;BME280;15572;48.810;9.148;2024-03-22T17:42:45;97791.34;;;15.71;57.26
28312;BME280;15572;48.810;9.148;2024-03-22T17:47:41;97793.63;;;15.63;58.20
28312;BME280;15572;48.810;9.148;2024-03-22T17:52:39;97789.34;;;15.43;59.72
28312;BME280;15572;48.810;9.148;2024-03-22T17:57:37;97781.59;;;15.29;60.18
28312;BME280;15572;48.810;9.148;2024-03-22T18:02:33;97794.28;;;15.23;60.88
28312;BME280;15572;48.810;9.148;2024-03-22T18:07:30;97784.06;;;15.07;62.48
28312;BME280;15572;48.810;9.148;2024-03-22T18:12:28;97789.13;;;14.92;64.04
28312;BME280;15572;48.810;9.148;2024-03-22T18:17:24;97778.78;;;14.70;66.10
28312;BME280;15572;48.810;9.148;2024-03-22T18:22:21;97782.16;;;14.54;66.87
28312;BME280;15572;48.810;9.148;2024-03-22T18:27:17;97779.25;;;14.38;69.16
28312;BME280;15572;48.810;9.148;2024-03-22T18:32:15;97779.63;;;14.23;70.64
28312;BME280;15572;48.810;9.148;2024-03-22T18:37:11;97776.41;;;13.96;71.98
28312;BME280;15572;48.810;9.148;2024-03-22T18:42:08;97778.06;;;13.79;73.63
28312;BME280;15572;48.810;9.148;2024-03-22T18:47:05;97774.75;;;13.59;75.00
28312;BME280;15572;48.810;9.148;2024-03-22T18:52:03;97768.22;;;13.41;74.61
28312;BME280;15572;48.810;9.148;2024-03-22T18:57:00;97768.38;;;13.28;75.83
28312;BME280;15572;48.810;9.148;2024-03-22T19:01:56;97767.22;;;13.11;75.72
28312;BME280;15572;48.810;9.148;2024-03-22T19:06:53;97755.25;;;12.94;76.26
28312;BME280;15572;48.810;9.148;2024-03-22T19:11:51;97754.38;;;12.75;78.60
28312;BME280;15572;48.810;9.148;2024-03-22T19:16:48;97745.47;;;12.61;78.82
28312;BME280;15572;48.810;9.148;2024-03-22T19:21:44;97743.72;;;12.49;80.18
28312;BME280;15572;48.810;9.148;2024-03-22T19:26:40;97737.53;;;12.35;81.70
28312;BME280;15572;48.810;9.148;2024-03-22T19:31:38;97734.06;;;12.21;83.40
28312;BME280;15572;48.810;9.148;2024-03-22T19:36:37;97732.53;;;11.94;85.50
28312;BME280;15572;48.810;9.148;2024-03-22T19:41:33;97730.50;;;11.83;85.62
28312;BME280;15572;48.810;9.148;2024-03-22T19:46:30;97725.34;;;11.75;86.44
28312;BME280;15572;48.810;9.148;2024-03-22T19:51:28;97727.41;;;11.66;87.30
28312;BME280;15572;48.810;9.148;2024-03-22T19:56:25;97728.91;;;11.56;88.19
28312;BME280;15572;48.810;9.148;2024-03-22T20:01:21;97724.78;;;11.40;88.82
28312;BME280;15572;48.810;9.148;2024-03-22T20:06:18;97713.56;;;11.23;89.84
28312;BME280;15572;48.810;9.148;2024-03-22T20:11:15;97712.97;;;11.15;90.72
28312;BME280;15572;48.810;9.148;2024-03-22T20:16:12;97704.47;;;11.05;91.34
28312;BME280;15572;48.810;9.148;2024-03-22T20:21:08;97709.25;;;11.03;91.82
28312;BME280;15572;48.810;9.148;2024-03-22T20:26:05;97700.72;;;10.92;92.23
28312;BME280;15572;48.810;9.148;2024-03-22T20:31:03;97690.13;;;10.84;93.03
28312;BME280;15572;48.810;9.148;2024-03-22T20:35:59;97693.66;;;10.72;94.42
